Etusivu
METAR-TAF:

METAR-TAF

Lentoasemat :

Tšita, Venäjä

Leveyspiiri: 52-05N, Pituuspiiri: 113-29E, korkeus merenpinnasta: 685 m

Tämänhetkinen sää

Tämä raportti tehtiin 44 minuuttia sitten, kello 17.00 UTC
Tuuli 2 kn eri suunnista
Lämpötila 7°C
Kosteus 66%
Ilmanpaine 1003 hPa
Näkyvyys 10 km tai enemmän

METAR: UIAA 211700Z AUTO VRB01MPS 9999 NCD 07/01 Q1003 RMK QFE694/0925

Aika: 02:44 (17:44 UTC)

Sääennuste

Tämä raportti tehtiin 44 minuuttia sitten, kello 17.00 UTC
Ennuste voimassa 21. päivästä klo 18 UTC - 22. päivään klo 18 UTC
Tuuli 6 kn lounaasta
Näkyvyys 10 km tai enemmän
Hajanaisia pilviä 4000 ft:n korkeudessa, Cumulonimbus.
From 22. päivästä klo 1200 UTC
Tuuli 12 kn lännestä/luoteesta puuskistuen 23 kn:hen
Näkyvyys: 3100 m
Pilvistä 1400 ft:n korkeudessa, Cumulonimbus.
heikkoja vesikuuroja

TAF: UIAA 211700Z 2118/2218 22003MPS 9999 SCT040CB FM221200 29006G12MPS 3100 -SHRA OVC014CB

Säähavainnot ja -ennusteet yli 4000 lentoasemalta (METAR- ja TAF-raportit).

Käytössä olevat sääasemat on merkitty karttaan keltaisilla ja punaisilla pisteillä.

Aseta hiiri pisteen päälle nähdäksesi sääaseman nimen.

Klikkaa sitten nähdäksesi säähavainnot ja -ennusteet.

Kartan vaihtaminen: klikkaa mustalla rastilla varustettuja vihreitä pisteitä, niin voit zoomata sisään; viivalla varustettua vihreää pistettä, niin voit zoomata ulos tai vihreitä nuolia, niin pääset viereisille kartoille.


METAR-TAF: